• Join FlightAware (Why Join?)
  • Login
  • US Flag 
11:12AM EDT


 

Airport Tracker/Info


-or-


 

Live Flight TrackerFlight Track Log ✈ EJA929 ✈ 26-Jul-2013 ✈ KSUN - KPDX

Flight Track Log - Related Links

Times and Time Zones

All times are in EDT time to prevent confusion due to time zone crossing. See the EJA929 flight status page for this flight to view local times or setup timezone preferences in your user account.

Time Position Orientation Groundspeed Altitude Reporting Facility
EDT Latitude Longitude Course Direction KTS MPH feet Rate Location/Type
07:08PM 43.3669 -114.2183 285° West 264 304 13,900  Level Salt Lake Center
07:09PM 43.3142 -114.2758 218° Southwest 259 298 17,700 3,180 Climbing Salt Lake Center
07:10PM 43.2881 -114.7881 287° West  Level FlightAware Approximate
07:10PM 43.3339 -114.3811 284° West 275 316 20,500  Level Salt Lake Center
07:11PM 43.3191 -114.9311 283° West  Level FlightAware Approximate
07:11PM 43.3725 -114.4869 297° West 327 376 21,700  Level Salt Lake Center
07:12PM 43.3433 -115.0766 283° West  Level FlightAware Approximate
07:12PM 43.4164 -114.6111 296° West 378 435 22,400  Level Salt Lake Center
07:13PM 43.3709 -115.2210 285° West  Level FlightAware Approximate
07:13PM 43.4706 -114.7683 295° West 405 466 24,200  Level Salt Lake Center
07:14PM 43.5164 -114.9042 295° West 407 468 25,700 1,500 Climbing Salt Lake Center
07:15PM 43.5731 -115.0689 295° West 423 487 27,400 1,440 Climbing Salt Lake Center
07:16PM 43.6217 -115.2133 295° West 431 496 28,700 1,440 Climbing Salt Lake Center
07:17PM 43.6797 -115.3839 295° West 438 504 30,400 1,740 Climbing Salt Lake Center
07:18PM 43.7297 -115.5328 295° West 443 510 32,300 2,460 Climbing Salt Lake Center
07:19PM 43.7847 -115.6983 295° West 422 486 35,500 1,740 Climbing Salt Lake Center
07:20PM 43.8317 -115.8408 295° West 425 489 36,000 240 Climbing Salt Lake Center
07:21PM 43.8831 -115.9967 295° West 461 531 36,000 240 Level Salt Lake Center
07:22PM 43.9431 -116.1842 294° West 473 544 36,600 780 Climbing Salt Lake Center
07:23PM 43.9953 -116.3436 295° West 471 542 37,600 960 Climbing Salt Lake Center
07:24PM 44.0547 -116.5261 294° West 462 532 38,700 960 Climbing Salt Lake Center
07:25PM 44.1050 -116.6836 294° West 462 532 39,600 600 Climbing Salt Lake Center
07:26PM 44.1633 -116.8656 294° West 461 531 40,000 180 Climbing Salt Lake Center
07:27PM 44.2139 -117.0275 294° West 472 543 40,000  Level Salt Lake Center
07:28PM 44.2653 -117.1914 294° West 479 551 40,000  Level Salt Lake Center
07:29PM 44.3256 -117.3825 294° West 481 554 40,000  Level Salt Lake Center
07:30PM 44.3750 -117.5419 294° West 467 537 40,000  Level Salt Lake Center
07:31PM 44.4297 -117.7200 293° West 447 514 40,000  Level Salt Lake Center
07:32PM 44.4764 -117.8700 294° West 441 507 40,000  Level Salt Lake Center
07:33PM 44.5303 -118.0475 293° West 443 510 40,000  Level Salt Lake Center
07:34PM 44.5772 -118.2017 293° West 447 514 40,000  Level Salt Lake Center
07:35PM 44.6297 -118.3769 293° West 449 517 40,000  Level Salt Lake Center
07:36PM 44.6831 -118.5336 296° West 447 514 40,000  Level Salt Lake Center
07:37PM 44.7233 -118.6967 289° West 444 511 40,000  Level Salt Lake Center
07:39PM 44.7636 -118.8589 289° West 442 509 40,000  Level Salt Lake Center
07:40PM 44.8044 -119.0203 290° West 440 506 40,000  Level Salt Lake Center
07:41PM 44.8456 -119.1853 289° West 445 512 40,000  Level Salt Lake Center
07:42PM 44.8939 -119.3822 289° West 445 512 40,000 -360 Level Salt Lake Center
07:43PM 44.9344 -119.5472 289° West 447 514 39,300 -1,680 Descending Salt Lake Center
07:44PM 44.9747 -119.7133 289° West 450 518 36,600 -2,580 Descending Salt Lake Center
07:45PM 45.0253 -119.9250 289° West 452 520 33,300 -2,640 Descending Seattle Center
07:46PM 45.0689 -120.1053 289° West 456 525 30,500 -2,580 Descending Seattle Center
07:47PM 45.1061 -120.2628 289° West 438 504 28,100 -2,340 Descending Seattle Center
07:48PM 45.1408 -120.4089 289° West 405 466 25,800 -2,460 Descending Seattle Center
07:49PM 45.1878 -120.5794 291° West 393 452 23,100 -1,980 Descending Seattle Center
07:50PM 45.2397 -120.7094 300° West 384 442 21,800 -1,380 Descending Seattle Center
07:51PM 45.2894 -120.8381 299° West 375 432 20,400 -1,380 Descending Seattle Center
07:52PM 45.3386 -120.9656 299° West 370 426 19,100 -1,260 Descending Seattle Center
07:53PM 45.3861 -121.0922 298° West 367 422 17,900 -1,320 Descending Seattle Center
07:54PM 45.4319 -121.2156 298° West 358 412 16,500 -1,320 Descending Seattle Center
07:55PM 45.4564 -121.3428 285° West 339 390 15,300 -1,260 Descending Seattle Center
07:56PM 45.4789 -121.4347 289° West 341 392 14,500 -1,740 Descending Seattle Center
07:57PM 45.4986 -121.5378 285° West 350 403 13,000 -1,680 Descending Seattle Center
07:57PM 45.5069 -121.6014 281° West 339 390 12,200 -1,440 Descending Seattle Center
07:58PM 45.5278 -121.7089 285° West 297 342 10,600 -1,860 Descending Seattle Center
07:59PM 45.5356 -121.7850 278° West 264 304 9,400 -2,220 Descending Seattle Center
07:59PM 45.5292 -121.8369 260° West 277 319 8,400 -1,980 Descending Seattle Center
08:00PM 45.5317 -121.8917 274° West 268 308 7,400 -1,500 Descending Seattle Center
08:00PM 45.5278 -121.9361 263° West 271 312 6,900 -420 Descending Seattle Center
08:01PM 45.5325 -121.9994 276° West 272 313 7,000 -600 Climbing Seattle Center
08:01PM 45.5300 -122.0411 265° West 265 305 6,300 -1,380 Descending Seattle Center
08:02PM 45.5336 -122.1103 274° West 261 300 5,500 -540 Descending Seattle Center
08:03PM 45.5336 -122.2153 270° West 249 287 5,500 -660 Level Seattle Center
08:04PM 45.5347 -122.3167 271° West 251 289 4,200 -1,440 Descending Seattle Center
08:05PM 45.5356 -122.4058 271° West 221 254 2,600 -1,380 Descending Seattle Center
08:06PM 45.5475 -122.4750 284° West 168 193 1,400 -960 Descending Seattle Center
08:07PM 45.5653 -122.5200 299° West 119 137 700 -660 Descending Seattle Center
08:08PM 45.5825 -122.5625 300° West 115 132 100 -600 Descending Seattle Center